createdAt,value
2023-01-19T00:00:17.993Z,994.27
2023-01-19T00:01:17.919Z,994.22
2023-01-19T00:02:17.889Z,994.26
2023-01-19T00:03:17.946Z,994.30
2023-01-19T00:04:17.878Z,994.32
2023-01-19T00:05:17.851Z,994.33
2023-01-19T00:06:17.963Z,994.34
2023-01-19T00:07:17.830Z,994.41
2023-01-19T00:08:17.847Z,994.36
2023-01-19T00:09:17.808Z,994.43
2023-01-19T00:10:17.797Z,994.40
2023-01-19T00:11:17.812Z,994.44
2023-01-19T00:12:17.793Z,994.45
2023-01-19T00:13:17.771Z,994.46
2023-01-19T00:14:17.760Z,994.41
2023-01-19T00:15:17.741Z,994.47
2023-01-19T00:16:17.766Z,994.46
2023-01-19T00:17:17.745Z,994.51
2023-01-19T00:18:17.720Z,994.49
2023-01-19T00:19:17.700Z,994.50
2023-01-19T00:20:17.703Z,994.56
2023-01-19T00:21:17.677Z,994.47
2023-01-19T00:22:17.660Z,994.45
2023-01-19T00:23:17.673Z,994.53
2023-01-19T00:24:17.639Z,994.47
2023-01-19T00:25:17.629Z,994.52
2023-01-19T00:26:17.640Z,994.51
2023-01-19T00:27:17.612Z,994.52
2023-01-19T00:28:17.599Z,994.55
2023-01-19T00:29:17.613Z,994.55
2023-01-19T00:30:17.581Z,994.58
2023-01-19T00:31:17.617Z,994.52
2023-01-19T00:32:17.565Z,994.54
2023-01-19T00:33:17.587Z,994.60
2023-01-19T00:34:17.531Z,994.66
2023-01-19T00:35:17.532Z,994.71
2023-01-19T00:36:17.520Z,994.62
2023-01-19T00:37:17.500Z,994.70
2023-01-19T00:38:17.511Z,994.70
2023-01-19T00:39:17.487Z,994.72
2023-01-19T00:40:17.486Z,994.66
2023-01-19T00:41:17.467Z,994.73
2023-01-19T00:42:17.451Z,994.68
2023-01-19T00:43:17.472Z,994.72
2023-01-19T00:44:17.433Z,994.71
2023-01-19T00:45:17.421Z,994.70
2023-01-19T00:46:17.403Z,994.68
2023-01-19T00:47:17.401Z,994.75
2023-01-19T00:48:17.412Z,994.71
2023-01-19T00:49:17.379Z,994.68
2023-01-19T00:50:17.358Z,994.72
2023-01-19T00:51:17.381Z,994.68
2023-01-19T00:52:17.338Z,994.70
2023-01-19T00:53:17.356Z,994.66
2023-01-19T00:54:17.328Z,994.69
2023-01-19T00:55:17.310Z,994.70
2023-01-19T00:56:17.317Z,994.79
2023-01-19T00:57:17.288Z,994.73
2023-01-19T00:58:17.297Z,994.85
2023-01-19T00:59:17.269Z,994.73
2023-01-19T01:00:17.271Z,994.72
2023-01-19T01:01:17.367Z,994.78
2023-01-19T01:02:17.504Z,994.79
2023-01-19T01:03:17.270Z,994.76
2023-01-19T01:04:17.209Z,994.78
2023-01-19T01:05:17.209Z,994.84
2023-01-19T01:06:17.201Z,994.74
2023-01-19T01:07:17.194Z,994.71
2023-01-19T01:08:17.171Z,994.66
2023-01-19T01:09:17.186Z,994.71
2023-01-19T01:10:17.152Z,994.73
2023-01-19T01:11:17.136Z,994.79
2023-01-19T01:12:17.130Z,994.84
2023-01-19T01:13:21.267Z,994.72
2023-01-19T01:14:18.140Z,994.76
2023-01-19T01:15:17.089Z,994.81
2023-01-19T01:16:17.113Z,994.82
2023-01-19T01:17:17.072Z,994.83
2023-01-19T01:18:17.068Z,994.84
2023-01-19T01:19:17.063Z,994.90
2023-01-19T01:20:17.069Z,994.86
2023-01-19T01:21:17.037Z,994.85
2023-01-19T01:22:17.021Z,994.80
2023-01-19T01:23:17.016Z,994.84
2023-01-19T01:24:17.008Z,994.76
2023-01-19T01:25:16.992Z,994.90
2023-01-19T01:26:17.010Z,994.84
2023-01-19T01:27:16.968Z,994.85
2023-01-19T01:28:16.960Z,994.82
2023-01-19T01:29:16.949Z,994.88
2023-01-19T01:30:16.940Z,994.81
2023-01-19T01:31:16.989Z,994.85
2023-01-19T01:32:16.932Z,994.80
2023-01-19T01:33:41.044Z,994.84
2023-01-19T01:34:17.891Z,994.90
2023-01-19T01:35:16.906Z,994.84
2023-01-19T01:36:16.868Z,994.86
2023-01-19T01:37:16.861Z,994.89
2023-01-19T01:38:16.892Z,994.88
2023-01-19T01:39:24.678Z,994.87
2023-01-19T01:40:16.837Z,994.89
2023-01-19T01:41:16.818Z,994.96
2023-01-19T01:42:16.807Z,994.89
2023-01-19T01:43:16.818Z,994.85
2023-01-19T01:44:16.802Z,994.85
2023-01-19T01:45:16.772Z,994.86
2023-01-19T01:46:16.819Z,994.82
2023-01-19T01:47:16.750Z,994.88
2023-01-19T01:48:16.750Z,994.85
2023-01-19T01:49:16.774Z,994.82
2023-01-19T01:50:16.729Z,994.80
2023-01-19T01:51:16.714Z,994.85
2023-01-19T01:52:16.706Z,994.82
2023-01-19T01:53:16.699Z,994.80
2023-01-19T01:54:16.702Z,994.84
2023-01-19T01:55:16.689Z,994.80
2023-01-19T01:56:16.665Z,994.77
2023-01-19T01:57:16.680Z,994.84
2023-01-19T01:58:16.632Z,994.78
2023-01-19T01:59:16.628Z,994.83
2023-01-19T02:00:16.635Z,994.87
2023-01-19T02:01:16.711Z,994.86
2023-01-19T02:02:16.619Z,994.85
2023-01-19T02:03:16.605Z,994.82
2023-01-19T02:04:16.571Z,994.79
2023-01-19T02:05:16.561Z,994.76
2023-01-19T02:06:16.549Z,994.78
2023-01-19T02:07:16.532Z,994.77
2023-01-19T02:08:16.552Z,994.81
2023-01-19T02:09:16.523Z,994.70
2023-01-19T02:10:16.510Z,994.76
2023-01-19T02:11:16.500Z,994.77
2023-01-19T02:12:16.523Z,994.71
2023-01-19T02:13:16.490Z,994.74
2023-01-19T02:14:16.470Z,994.75
2023-01-19T02:15:16.450Z,994.71
2023-01-19T02:16:16.477Z,994.69
2023-01-19T02:17:16.430Z,994.76
2023-01-19T02:18:16.443Z,994.72
2023-01-19T02:19:16.412Z,994.80
2023-01-19T02:20:16.412Z,994.81
2023-01-19T02:21:16.397Z,994.72
2023-01-19T02:22:16.400Z,994.76
2023-01-19T02:23:16.373Z,994.77
2023-01-19T02:24:16.379Z,994.71
2023-01-19T02:25:16.341Z,994.62
2023-01-19T02:26:16.337Z,994.70
2023-01-19T02:27:16.323Z,994.70
2023-01-19T02:28:16.310Z,994.67
2023-01-19T02:29:16.337Z,994.68
2023-01-19T02:30:16.284Z,994.69
2023-01-19T02:31:16.282Z,994.68
2023-01-19T02:32:16.303Z,994.70
2023-01-19T02:33:16.269Z,994.70
2023-01-19T02:34:16.262Z,994.66
2023-01-19T02:35:16.260Z,994.63
2023-01-19T02:36:16.233Z,994.60
2023-01-19T02:37:16.217Z,994.59
2023-01-19T02:38:16.209Z,994.75
2023-01-19T02:39:16.207Z,994.70
2023-01-19T02:40:16.215Z,994.75
2023-01-19T02:41:16.184Z,994.73
2023-01-19T02:42:16.168Z,994.71
2023-01-19T02:43:16.153Z,994.72
2023-01-19T02:44:16.148Z,994.73
2023-01-19T02:45:16.132Z,994.69
2023-01-19T02:46:16.164Z,994.72
2023-01-19T02:47:16.117Z,994.65
2023-01-19T02:48:16.100Z,994.74
2023-01-19T02:49:16.084Z,994.71
2023-01-19T02:50:16.097Z,994.66
2023-01-19T02:51:16.091Z,994.67
2023-01-19T02:52:16.061Z,994.71
2023-01-19T02:53:16.057Z,994.72
2023-01-19T02:54:16.048Z,994.68
2023-01-19T02:55:16.031Z,994.71
2023-01-19T02:56:16.041Z,994.68
2023-01-19T02:57:16.000Z,994.58
2023-01-19T02:58:15.990Z,994.54
2023-01-19T02:59:15.991Z,994.67
2023-01-19T03:00:15.982Z,994.66
2023-01-19T03:01:16.048Z,994.70
2023-01-19T03:02:16.000Z,994.69
2023-01-19T03:03:15.946Z,994.62
2023-01-19T03:04:15.943Z,994.71
2023-01-19T03:05:15.920Z,994.66
2023-01-19T03:06:15.931Z,994.63
2023-01-19T03:07:15.890Z,994.68
2023-01-19T03:08:15.878Z,994.68
2023-01-19T03:09:15.867Z,994.59
2023-01-19T03:10:15.860Z,994.65
2023-01-19T03:11:15.873Z,994.60
2023-01-19T03:12:15.846Z,994.65
2023-01-19T03:13:15.830Z,994.64
2023-01-19T03:14:15.820Z,994.66
2023-01-19T03:15:15.810Z,994.63
2023-01-19T03:16:15.837Z,994.65
2023-01-19T03:17:15.780Z,994.67
2023-01-19T03:18:15.770Z,994.59
2023-01-19T03:19:15.767Z,994.68
2023-01-19T03:20:15.759Z,994.68
2023-01-19T03:21:15.738Z,994.66
2023-01-19T03:22:15.750Z,994.67
2023-01-19T03:23:15.726Z,994.70
2023-01-19T03:24:15.723Z,994.67
2023-01-19T03:25:15.702Z,994.64
2023-01-19T03:26:15.691Z,994.62
2023-01-19T03:27:15.709Z,994.65
2023-01-19T03:28:15.669Z,994.65
2023-01-19T03:29:15.654Z,994.64
2023-01-19T03:30:15.644Z,994.65
2023-01-19T03:31:15.652Z,994.63
2023-01-19T03:32:15.638Z,994.65
2023-01-19T03:33:15.631Z,994.64
2023-01-19T03:34:15.600Z,994.65
2023-01-19T03:35:15.591Z,994.64
2023-01-19T03:36:15.609Z,994.64
2023-01-19T03:37:15.599Z,994.62
2023-01-19T03:38:15.559Z,994.57
2023-01-19T03:39:15.575Z,994.57
2023-01-19T03:40:15.538Z,994.51
2023-01-19T03:41:15.556Z,994.58
2023-01-19T03:42:15.548Z,994.58
2023-01-19T03:43:15.510Z,994.60
2023-01-19T03:44:15.521Z,994.55
2023-01-19T03:45:15.488Z,994.61
2023-01-19T03:46:15.519Z,994.62
2023-01-19T03:47:15.478Z,994.83
2023-01-19T03:48:15.466Z,994.61
2023-01-19T03:49:15.439Z,994.62
2023-01-19T03:50:15.448Z,994.57
2023-01-19T03:51:15.418Z,994.64
2023-01-19T03:52:15.408Z,994.66
2023-01-19T03:53:15.398Z,994.59
2023-01-19T03:54:15.386Z,994.64
2023-01-19T03:55:15.415Z,994.56
2023-01-19T03:56:15.378Z,994.63
2023-01-19T03:57:15.416Z,994.62
2023-01-19T03:58:15.353Z,994.64
2023-01-19T03:59:15.330Z,994.65
2023-01-19T04:00:15.407Z,994.63
2023-01-19T04:01:15.462Z,994.60
2023-01-19T04:02:15.336Z,994.67
2023-01-19T04:03:15.290Z,994.63
2023-01-19T04:04:15.279Z,994.67
2023-01-19T04:05:15.269Z,994.64
2023-01-19T04:06:15.267Z,994.53
2023-01-19T04:07:15.268Z,994.66
2023-01-19T04:08:15.245Z,994.60
2023-01-19T04:09:15.248Z,994.63
2023-01-19T04:10:15.218Z,994.66
2023-01-19T04:11:15.209Z,994.65
2023-01-19T04:12:15.189Z,994.58
2023-01-19T04:13:15.178Z,994.55
2023-01-19T04:14:36.225Z,994.63
2023-01-19T04:15:15.159Z,994.66
2023-01-19T04:16:15.235Z,994.66
2023-01-19T04:17:15.139Z,994.71
2023-01-19T04:18:15.132Z,994.54
2023-01-19T04:19:15.140Z,994.58
2023-01-19T04:20:15.129Z,994.59
2023-01-19T04:21:15.098Z,994.55
2023-01-19T04:22:15.109Z,994.51
2023-01-19T04:23:15.076Z,994.51
2023-01-19T04:24:15.113Z,994.53
2023-01-19T04:25:15.065Z,994.51
2023-01-19T04:26:15.074Z,994.53
2023-01-19T04:27:15.040Z,994.50
2023-01-19T04:28:15.033Z,994.42
2023-01-19T04:29:15.039Z,994.51
2023-01-19T04:30:15.006Z,994.44
2023-01-19T04:31:15.023Z,994.44
2023-01-19T04:32:14.994Z,994.50
2023-01-19T04:33:15.015Z,994.41
2023-01-19T04:34:14.957Z,994.44
2023-01-19T04:35:14.947Z,994.45
2023-01-19T04:36:14.947Z,994.49
2023-01-19T04:37:14.934Z,994.41
2023-01-19T04:38:14.950Z,994.43
2023-01-19T04:39:14.934Z,994.46
2023-01-19T04:40:14.900Z,994.50
2023-01-19T04:41:14.890Z,994.43
2023-01-19T04:42:14.868Z,994.56
2023-01-19T04:43:14.864Z,994.47
2023-01-19T04:44:14.883Z,994.48
2023-01-19T04:45:14.836Z,994.42
2023-01-19T04:46:14.842Z,994.49
2023-01-19T04:47:14.817Z,994.42
2023-01-19T04:48:14.812Z,994.45
2023-01-19T04:49:14.816Z,994.43
2023-01-19T04:50:14.791Z,994.40
2023-01-19T04:51:14.775Z,994.48
2023-01-19T04:52:14.771Z,994.44
2023-01-19T04:53:14.748Z,994.48
2023-01-19T04:54:14.774Z,994.44
2023-01-19T04:55:14.765Z,994.39
2023-01-19T04:56:14.734Z,994.45
2023-01-19T04:57:14.707Z,994.44
2023-01-19T04:58:14.698Z,994.43
2023-01-19T04:59:14.694Z,994.40
2023-01-19T05:00:14.685Z,994.38
2023-01-19T05:01:14.687Z,994.49
2023-01-19T05:02:14.676Z,994.45
2023-01-19T05:03:14.690Z,994.43
2023-01-19T05:04:14.660Z,994.43
2023-01-19T05:05:14.644Z,994.47
2023-01-19T05:06:14.618Z,994.43
2023-01-19T05:07:14.608Z,994.46
2023-01-19T05:08:14.597Z,994.44
2023-01-19T05:09:14.581Z,994.40
2023-01-19T05:10:14.597Z,994.41
2023-01-19T05:11:14.560Z,994.42
2023-01-19T05:12:14.567Z,994.44
2023-01-19T05:13:14.541Z,994.44
2023-01-19T05:14:14.536Z,994.49
2023-01-19T05:15:14.518Z,994.49
2023-01-19T05:16:14.540Z,994.42
2023-01-19T05:17:14.503Z,994.51
2023-01-19T05:18:14.486Z,994.50
2023-01-19T05:19:14.478Z,994.45
2023-01-19T05:20:16.380Z,994.48
2023-01-19T05:21:14.460Z,994.47
2023-01-19T05:22:14.445Z,994.57
2023-01-19T05:23:14.431Z,994.49
2023-01-19T05:24:14.426Z,994.51
2023-01-19T05:25:14.448Z,994.46
2023-01-19T05:26:14.411Z,994.47
2023-01-19T05:27:14.395Z,994.47
2023-01-19T05:28:14.376Z,994.48
2023-01-19T05:29:14.369Z,994.51
2023-01-19T05:30:14.380Z,994.57
2023-01-19T05:31:14.456Z,994.52
2023-01-19T05:32:14.344Z,994.53
2023-01-19T05:33:14.324Z,994.54
2023-01-19T05:34:14.336Z,994.56
2023-01-19T05:35:15.409Z,994.55
2023-01-19T05:36:14.434Z,994.54
2023-01-19T05:37:14.306Z,994.53
2023-01-19T05:38:15.665Z,994.54
2023-01-19T05:39:14.257Z,994.54
2023-01-19T05:40:14.247Z,994.64
2023-01-19T05:41:14.261Z,994.52
2023-01-19T05:42:14.257Z,994.55
2023-01-19T05:43:14.214Z,994.54
2023-01-19T05:44:14.294Z,994.52
2023-01-19T05:45:14.195Z,994.57
2023-01-19T05:46:14.271Z,994.53
2023-01-19T05:47:14.195Z,994.58
2023-01-19T05:48:14.156Z,994.58
2023-01-19T05:49:14.153Z,994.60
2023-01-19T05:50:14.136Z,994.61
2023-01-19T05:51:14.125Z,994.58
2023-01-19T05:52:14.124Z,994.59
2023-01-19T05:53:14.128Z,994.59
2023-01-19T05:54:14.106Z,994.60
2023-01-19T05:55:15.462Z,994.62
2023-01-19T05:56:14.080Z,994.58
2023-01-19T05:57:14.068Z,994.59
2023-01-19T05:58:14.052Z,994.64
2023-01-19T05:59:14.062Z,994.60
2023-01-19T06:00:14.025Z,994.56
2023-01-19T06:01:14.031Z,994.63
2023-01-19T06:02:14.059Z,994.61
2023-01-19T06:03:14.049Z,994.62
2023-01-19T06:04:14.001Z,994.56
2023-01-19T06:05:14.019Z,994.53
2023-01-19T06:06:13.974Z,994.53
2023-01-19T06:07:13.956Z,994.57
2023-01-19T06:08:13.966Z,994.63
2023-01-19T06:09:13.935Z,994.65
2023-01-19T06:10:13.925Z,994.73
2023-01-19T06:11:13.905Z,994.64
2023-01-19T06:12:13.906Z,994.67
2023-01-19T06:13:13.913Z,994.63
2023-01-19T06:14:13.875Z,994.69
2023-01-19T06:15:13.866Z,994.55
2023-01-19T06:16:13.886Z,994.60
2023-01-19T06:17:13.843Z,994.60
2023-01-19T06:18:13.840Z,994.67
2023-01-19T06:19:13.845Z,994.76
2023-01-19T06:20:13.813Z,994.64
2023-01-19T06:21:13.802Z,994.64
2023-01-19T06:22:13.798Z,994.56
2023-01-19T06:23:13.775Z,994.63
2023-01-19T06:24:14.544Z,994.66
2023-01-19T06:25:13.763Z,994.65
2023-01-19T06:26:13.781Z,994.70
2023-01-19T06:27:13.746Z,994.74
2023-01-19T06:28:13.724Z,994.72
2023-01-19T06:29:13.762Z,994.68
2023-01-19T06:30:13.734Z,994.74
2023-01-19T06:31:13.763Z,994.78
2023-01-19T06:32:13.696Z,994.79
2023-01-19T06:33:13.676Z,994.81
2023-01-19T06:34:13.690Z,994.87
2023-01-19T06:35:13.653Z,994.91
2023-01-19T06:36:13.647Z,994.85
2023-01-19T06:37:13.635Z,994.81
2023-01-19T06:38:13.638Z,994.84
2023-01-19T06:39:13.604Z,994.83
2023-01-19T06:40:14.508Z,994.81
2023-01-19T06:41:13.584Z,994.80
2023-01-19T06:42:13.584Z,994.87
2023-01-19T06:43:13.573Z,994.86
2023-01-19T06:44:13.563Z,994.84
2023-01-19T06:45:13.572Z,994.85
2023-01-19T06:46:13.569Z,994.92
2023-01-19T06:47:15.433Z,994.91
2023-01-19T06:48:13.517Z,994.83
2023-01-19T06:49:13.505Z,994.91
2023-01-19T06:50:13.534Z,994.87
2023-01-19T06:51:13.475Z,994.87
2023-01-19T06:52:13.463Z,994.90
2023-01-19T06:53:13.452Z,994.93
2023-01-19T06:54:13.444Z,994.83
2023-01-19T06:55:13.439Z,994.92
2023-01-19T06:56:13.452Z,994.90
2023-01-19T06:57:13.417Z,994.91
2023-01-19T06:58:13.423Z,994.91
2023-01-19T06:59:13.391Z,994.90
2023-01-19T07:00:13.380Z,994.96
2023-01-19T07:01:13.476Z,994.98
2023-01-19T07:02:27.864Z,994.97
2023-01-19T07:03:14.401Z,994.98
2023-01-19T07:04:13.336Z,994.87
2023-01-19T07:05:13.333Z,994.89
2023-01-19T07:06:13.338Z,994.90
2023-01-19T07:07:13.314Z,994.98
2023-01-19T07:08:13.311Z,994.93
2023-01-19T07:09:14.214Z,995.00
2023-01-19T07:10:13.282Z,994.91
2023-01-19T07:11:26.263Z,994.91
2023-01-19T07:12:14.243Z,994.95
2023-01-19T07:13:13.261Z,994.89
2023-01-19T07:14:13.226Z,995.04
2023-01-19T07:15:13.219Z,995.05
2023-01-19T07:16:13.388Z,995.09
2023-01-19T07:17:13.193Z,995.11
2023-01-19T07:18:13.218Z,995.13
2023-01-19T07:19:13.174Z,995.22
2023-01-19T07:20:13.165Z,995.24
2023-01-19T07:21:13.163Z,995.22
2023-01-19T07:22:13.160Z,995.26
2023-01-19T07:23:13.124Z,995.28
2023-01-19T07:24:13.134Z,995.31
2023-01-19T07:25:13.111Z,995.32
2023-01-19T07:26:13.093Z,995.37
2023-01-19T07:27:13.092Z,995.33
2023-01-19T07:28:13.082Z,995.37
2023-01-19T07:29:13.088Z,995.36
2023-01-19T07:30:13.094Z,995.43
2023-01-19T07:31:13.152Z,995.47
2023-01-19T07:32:13.033Z,995.48
2023-01-19T07:33:13.022Z,995.43
2023-01-19T07:34:13.013Z,995.46
2023-01-19T07:35:13.001Z,995.43
2023-01-19T07:36:13.019Z,995.48
2023-01-19T07:37:12.992Z,995.55
2023-01-19T07:38:12.963Z,995.46
2023-01-19T07:39:12.976Z,995.49
2023-01-19T07:40:22.159Z,995.50
2023-01-19T07:41:12.939Z,995.52
2023-01-19T07:42:12.952Z,995.61
2023-01-19T07:43:12.912Z,995.59
2023-01-19T07:44:12.900Z,995.65
2023-01-19T07:45:12.893Z,995.65
2023-01-19T07:46:12.911Z,995.73
2023-01-19T07:47:12.875Z,995.67
2023-01-19T07:48:12.882Z,995.67
2023-01-19T07:49:12.848Z,995.67
2023-01-19T07:50:12.845Z,995.70
2023-01-19T07:51:13.206Z,995.68
2023-01-19T07:52:12.832Z,995.68
2023-01-19T07:53:12.801Z,995.70
2023-01-19T07:54:12.819Z,995.78
2023-01-19T07:55:12.784Z,995.75
2023-01-19T07:56:12.774Z,995.68
2023-01-19T07:57:12.801Z,995.79
2023-01-19T07:58:12.749Z,995.77
2023-01-19T07:59:12.761Z,995.78
2023-01-19T08:00:12.729Z,995.79
2023-01-19T08:01:12.840Z,995.82
2023-01-19T08:02:12.774Z,995.80
2023-01-19T08:03:12.721Z,995.89
2023-01-19T08:04:12.796Z,995.92
2023-01-19T08:05:12.703Z,995.88
2023-01-19T08:06:12.679Z,995.93
2023-01-19T08:07:12.660Z,995.96
2023-01-19T08:08:12.640Z,995.95
2023-01-19T08:09:12.659Z,995.94
2023-01-19T08:10:12.624Z,996.01
2023-01-19T08:11:12.610Z,995.99
2023-01-19T08:12:12.603Z,996.10
2023-01-19T08:13:12.588Z,996.15
2023-01-19T08:14:12.600Z,996.08
2023-01-19T08:15:12.561Z,996.12
2023-01-19T08:16:12.609Z,996.16
2023-01-19T08:17:12.548Z,996.10
2023-01-19T08:18:12.532Z,996.24
2023-01-19T08:19:12.545Z,996.23
2023-01-19T08:20:12.532Z,996.26
2023-01-19T08:21:12.544Z,996.20
2023-01-19T08:22:12.487Z,996.32
2023-01-19T08:23:12.480Z,996.30
2023-01-19T08:24:12.487Z,996.27
2023-01-19T08:25:12.502Z,996.30
2023-01-19T08:26:12.446Z,996.33
2023-01-19T08:27:12.440Z,996.33
2023-01-19T08:28:12.433Z,996.48
2023-01-19T08:29:12.424Z,996.35
2023-01-19T08:30:12.415Z,996.40
2023-01-19T08:31:20.450Z,996.39
2023-01-19T08:32:13.461Z,996.42
2023-01-19T08:33:12.386Z,996.52
2023-01-19T08:34:12.368Z,996.49
2023-01-19T08:35:12.379Z,996.52
2023-01-19T08:36:12.339Z,996.49
2023-01-19T08:37:12.329Z,996.51
2023-01-19T08:38:12.325Z,996.56
2023-01-19T08:39:12.338Z,996.64
2023-01-19T08:40:12.328Z,996.58
2023-01-19T08:41:12.300Z,996.58
2023-01-19T08:42:12.279Z,996.56
2023-01-19T08:43:12.276Z,996.63
2023-01-19T08:44:12.267Z,996.64
2023-01-19T08:45:12.240Z,996.63
2023-01-19T08:46:12.320Z,996.72
2023-01-19T08:47:12.291Z,996.68
2023-01-19T08:48:12.218Z,996.74
2023-01-19T08:49:12.205Z,996.71
2023-01-19T08:50:12.189Z,996.82
2023-01-19T08:51:12.191Z,996.82
2023-01-19T08:52:12.189Z,996.78
2023-01-19T08:53:12.170Z,996.73
2023-01-19T08:54:12.146Z,996.77
2023-01-19T08:55:12.140Z,996.85
2023-01-19T08:56:12.167Z,996.83
2023-01-19T08:57:12.115Z,996.81
2023-01-19T08:58:12.106Z,996.90
2023-01-19T08:59:13.207Z,996.91
2023-01-19T09:00:12.077Z,996.94
2023-01-19T09:01:12.209Z,996.91
2023-01-19T09:02:12.100Z,996.97
2023-01-19T09:03:12.175Z,996.92
2023-01-19T09:04:12.039Z,996.99
2023-01-19T09:05:12.028Z,997.04
2023-01-19T09:06:12.064Z,997.04
2023-01-19T09:07:12.012Z,997.05
2023-01-19T09:08:12.018Z,997.08
2023-01-19T09:09:11.993Z,997.17
2023-01-19T09:10:11.985Z,997.08
2023-01-19T09:11:11.982Z,997.18
2023-01-19T09:12:11.974Z,997.17
2023-01-19T09:13:11.957Z,997.20
2023-01-19T09:14:11.992Z,997.23
2023-01-19T09:15:11.930Z,997.28
2023-01-19T09:16:11.922Z,997.30
2023-01-19T09:17:11.927Z,997.30
2023-01-19T09:18:11.888Z,997.30
2023-01-19T09:19:11.921Z,997.26
2023-01-19T09:20:11.877Z,997.34
2023-01-19T09:21:11.861Z,997.26
2023-01-19T09:22:11.850Z,997.40
2023-01-19T09:23:11.856Z,997.38
2023-01-19T09:24:11.845Z,997.35
2023-01-19T09:25:11.827Z,997.42
2023-01-19T09:26:11.815Z,997.38
2023-01-19T09:27:11.796Z,997.47
2023-01-19T09:28:11.783Z,997.43
2023-01-19T09:29:11.798Z,997.43
2023-01-19T09:30:11.790Z,997.42
2023-01-19T09:31:11.816Z,997.44
2023-01-19T09:32:11.765Z,997.42
2023-01-19T09:33:11.738Z,997.47
2023-01-19T09:34:11.740Z,997.48
2023-01-19T09:35:11.717Z,997.52
2023-01-19T09:36:11.714Z,997.50
2023-01-19T09:37:11.695Z,997.57
2023-01-19T09:38:11.678Z,997.55
2023-01-19T09:39:11.695Z,997.51
2023-01-19T09:40:11.677Z,997.54
2023-01-19T09:41:11.656Z,997.59
2023-01-19T09:42:11.638Z,997.66
2023-01-19T09:43:11.625Z,997.56
2023-01-19T09:44:11.605Z,997.65
2023-01-19T09:45:12.253Z,997.70
2023-01-19T09:46:11.665Z,997.59
2023-01-19T09:47:11.578Z,997.71
2023-01-19T09:48:11.568Z,997.77
2023-01-19T09:49:11.563Z,997.73
2023-01-19T09:50:11.544Z,997.74
2023-01-19T09:51:11.537Z,997.80
2023-01-19T09:52:11.548Z,997.74
2023-01-19T09:53:11.535Z,997.80
2023-01-19T09:54:11.525Z,997.87
2023-01-19T09:55:11.509Z,997.84
2023-01-19T09:56:11.499Z,997.88
2023-01-19T09:57:11.481Z,997.82
2023-01-19T09:58:11.459Z,997.86
2023-01-19T09:59:11.448Z,997.88
2023-01-19T10:00:11.439Z,997.92
2023-01-19T10:01:11.547Z,997.92
2023-01-19T10:02:11.412Z,997.94
2023-01-19T10:03:11.489Z,997.96
2023-01-19T10:04:11.395Z,997.94
2023-01-19T10:05:11.380Z,997.95
2023-01-19T10:06:11.406Z,997.91
2023-01-19T10:07:11.370Z,998.05
2023-01-19T10:08:11.354Z,997.99
2023-01-19T10:09:11.347Z,998.05
2023-01-19T10:10:11.329Z,998.01
2023-01-19T10:11:11.318Z,998.04
2023-01-19T10:12:11.327Z,998.01
2023-01-19T10:13:11.317Z,998.05
2023-01-19T10:14:11.301Z,998.08
2023-01-19T10:15:11.290Z,998.05
2023-01-19T10:16:11.307Z,998.08
2023-01-19T10:17:11.248Z,998.08
2023-01-19T10:18:11.245Z,998.11
2023-01-19T10:19:11.256Z,998.05
2023-01-19T10:20:11.216Z,998.18
2023-01-19T10:21:11.223Z,998.18
2023-01-19T10:22:11.196Z,998.16
2023-01-19T10:23:11.221Z,998.17
2023-01-19T10:24:11.220Z,998.20
2023-01-19T10:25:11.166Z,998.17
2023-01-19T10:26:11.165Z,998.24
2023-01-19T10:27:11.150Z,998.20
2023-01-19T10:28:11.165Z,998.23
2023-01-19T10:29:11.814Z,998.23
2023-01-19T10:30:11.147Z,998.30
2023-01-19T10:31:11.174Z,998.21
2023-01-19T10:32:11.146Z,998.26
2023-01-19T10:33:11.108Z,998.27
2023-01-19T10:34:11.097Z,998.24
2023-01-19T10:35:11.066Z,998.28
2023-01-19T10:36:11.049Z,998.27
2023-01-19T10:37:11.035Z,998.40
2023-01-19T10:38:11.071Z,998.29
2023-01-19T10:39:11.064Z,998.36
2023-01-19T10:40:11.066Z,998.33
2023-01-19T10:41:11.065Z,998.38
2023-01-19T10:42:11.006Z,998.39
2023-01-19T10:43:10.975Z,998.40
2023-01-19T10:44:11.013Z,998.38
2023-01-19T10:45:10.985Z,998.41
2023-01-19T10:46:11.010Z,998.38
2023-01-19T10:47:10.936Z,998.34
2023-01-19T10:48:10.913Z,998.40
2023-01-19T10:49:10.916Z,998.40
2023-01-19T10:50:10.974Z,998.39
2023-01-19T10:51:10.906Z,998.35
2023-01-19T10:52:10.885Z,998.37
2023-01-19T10:53:10.888Z,998.41
2023-01-19T10:54:10.907Z,998.44
2023-01-19T10:55:10.899Z,998.51
2023-01-19T10:56:10.828Z,998.50
2023-01-19T10:57:10.817Z,998.52
2023-01-19T10:58:10.881Z,998.57
2023-01-19T10:59:10.797Z,998.45
2023-01-19T11:00:10.881Z,998.40
2023-01-19T11:01:10.889Z,998.42
2023-01-19T11:02:10.947Z,998.45
2023-01-19T11:03:10.862Z,998.47
2023-01-19T11:04:10.744Z,998.44
2023-01-19T11:05:10.736Z,998.40
2023-01-19T11:06:10.739Z,998.42
2023-01-19T11:07:10.715Z,998.45
2023-01-19T11:08:10.698Z,998.41
2023-01-19T11:09:10.696Z,998.43
2023-01-19T11:10:10.682Z,998.45
2023-01-19T11:11:10.668Z,998.47
2023-01-19T11:12:10.675Z,998.40
2023-01-19T11:13:10.650Z,998.47
2023-01-19T11:14:10.632Z,998.51
2023-01-19T11:15:10.656Z,998.48
2023-01-19T11:16:12.389Z,998.44
2023-01-19T11:17:10.596Z,998.45
2023-01-19T11:18:10.595Z,998.45
2023-01-19T11:19:10.576Z,998.42
2023-01-19T11:20:10.596Z,998.41
2023-01-19T11:21:10.586Z,998.42
2023-01-19T11:22:10.547Z,998.41
2023-01-19T11:23:10.542Z,998.43
2023-01-19T11:24:10.527Z,998.39
2023-01-19T11:25:10.539Z,998.39
2023-01-19T11:26:10.499Z,998.34
2023-01-19T11:27:10.496Z,998.44
2023-01-19T11:28:10.484Z,998.45
2023-01-19T11:29:10.465Z,998.32
2023-01-19T11:30:10.535Z,998.33
2023-01-19T11:31:10.513Z,998.32
2023-01-19T11:32:10.533Z,998.38
2023-01-19T11:33:10.418Z,998.42
2023-01-19T11:34:10.415Z,998.39
2023-01-19T11:35:10.418Z,998.36
2023-01-19T11:36:10.388Z,998.41
2023-01-19T11:37:10.377Z,998.36
2023-01-19T11:38:10.376Z,998.36
2023-01-19T11:39:10.359Z,998.37
2023-01-19T11:40:10.347Z,998.31
2023-01-19T11:41:10.359Z,998.32
2023-01-19T11:42:10.330Z,998.23
2023-01-19T11:43:10.316Z,998.25
2023-01-19T11:44:10.310Z,998.27
2023-01-19T11:45:10.309Z,998.26
2023-01-19T11:46:10.289Z,998.27
2023-01-19T11:47:10.276Z,998.38
2023-01-19T11:48:10.274Z,998.34
2023-01-19T11:49:10.250Z,998.33
2023-01-19T11:50:10.268Z,998.43
2023-01-19T11:51:10.230Z,998.45
2023-01-19T11:52:10.229Z,998.42
2023-01-19T11:53:10.210Z,998.37
2023-01-19T11:54:10.198Z,998.39
2023-01-19T11:55:10.207Z,998.40
2023-01-19T11:56:10.219Z,998.35
2023-01-19T11:57:10.203Z,998.40
2023-01-19T11:58:10.161Z,998.43
2023-01-19T11:59:10.170Z,998.44
2023-01-19T12:00:10.209Z,998.52
2023-01-19T12:01:10.178Z,998.45
2023-01-19T12:02:10.144Z,998.52
2023-01-19T12:03:10.166Z,998.51
2023-01-19T12:04:10.097Z,998.49
2023-01-19T12:05:10.080Z,998.48
2023-01-19T12:06:10.105Z,998.38
2023-01-19T12:07:10.050Z,998.51
2023-01-19T12:08:10.047Z,998.52
2023-01-19T12:09:10.043Z,998.46
2023-01-19T12:10:10.029Z,998.44
2023-01-19T12:11:10.011Z,998.41
2023-01-19T12:12:10.038Z,998.40
2023-01-19T12:13:09.989Z,998.41
2023-01-19T12:14:10.024Z,998.50
2023-01-19T12:15:09.970Z,998.49
2023-01-19T12:16:10.034Z,998.50
2023-01-19T12:17:09.951Z,998.43
2023-01-19T12:18:09.947Z,998.45
2023-01-19T12:19:09.940Z,998.47
2023-01-19T12:20:09.922Z,998.49
2023-01-19T12:21:09.932Z,998.47
2023-01-19T12:22:09.901Z,998.43
2023-01-19T12:23:09.881Z,998.43
2023-01-19T12:24:09.925Z,998.48
2023-01-19T12:25:09.862Z,998.44
2023-01-19T12:26:09.882Z,998.41
2023-01-19T12:27:09.841Z,998.39
2023-01-19T12:28:09.845Z,998.40